Time;durP1;ratioP1;P1;durP2;ratioP2;P2;SDS_P1;SDS_P2;PMS_P1;PMS_P2;Temp;Humidity;BMP_temperature;BMP_pressure;BME280_temperature;BME280_humidity;BME280_pressure;Samples;Min_cycle;Max_cycle;Signal;HPM_P1;HPM_P2
2022/06/04 00:00:56;;;;;;;3.93;2.77;;;16.50;99.90;;;;;;5135584;27;20531;-64
2022/06/04 00:03:23;;;;;;;4.60;2.60;;;16.40;99.90;;;;;;5135044;27;20878;-64
2022/06/04 00:05:53;;;;;;;3.40;2.80;;;16.40;99.90;;;;;;5135935;27;20460;-64
2022/06/04 00:08:21;;;;;;;3.90;2.47;;;16.40;99.90;;;;;;5134541;27;20440;-64
2022/06/04 00:16:24;;;;;;;3.83;2.93;;;16.30;99.90;;;;;;5135173;27;20424;-63
2022/06/04 00:18:51;;;;;;;4.03;2.87;;;16.20;99.90;;;;;;5134595;27;20440;-63
2022/06/04 00:21:18;;;;;;;3.90;2.67;;;16.20;99.90;;;;;;5135121;27;20433;-66
2022/06/04 00:23:46;;;;;;;4.17;2.20;;;16.20;99.90;;;;;;5134651;27;20473;-69
2022/06/04 00:26:14;;;;;;;3.47;2.83;;;16.10;99.90;;;;;;5135662;27;20468;-64
2022/06/04 00:28:41;;;;;;;3.80;2.73;;;16.10;99.90;;;;;;5134275;27;20430;-64
2022/06/04 00:31:09;;;;;;;3.97;2.20;;;16.00;99.90;;;;;;5134428;27;20430;-63
2022/06/04 00:33:37;;;;;;;3.97;2.20;;;16.00;99.90;;;;;;5135173;27;20448;-64
2022/06/04 00:36:04;;;;;;;3.23;2.70;;;16.00;99.90;;;;;;5134403;27;20768;-63
2022/06/04 00:38:32;;;;;;;3.10;2.10;;;16.00;99.90;;;;;;5134849;27;20933;-64
2022/06/04 00:41:12;;;;;;;5.10;2.63;;;16.00;99.90;;;;;;5133880;27;20814;-64
2022/06/04 00:43:57;;;;;;;3.37;2.73;;;16.00;99.90;;;;;;5135157;27;20487;-64
2022/06/04 00:47:03;;;;;;;2.97;1.70;;;16.00;99.90;;;;;;5133698;27;20528;-63
2022/06/04 00:49:31;;;;;;;3.20;2.20;;;15.90;99.90;;;;;;5134949;27;20463;-64
2022/06/04 00:51:59;;;;;;;4.30;2.27;;;15.90;99.90;;;;;;5133596;27;20433;-64
2022/06/04 00:54:27;;;;;;;3.33;1.93;;;15.80;99.90;;;;;;5134446;27;20568;-64
2022/06/04 00:57:04;;;;;;;8.07;2.40;;;15.90;99.90;;;;;;5133675;27;20433;-63
2022/06/04 00:59:41;;;;;;;3.20;2.13;;;15.90;99.90;;;;;;5134919;27;20518;-64
2022/06/04 01:02:19;;;;;;;3.10;2.20;;;15.90;99.90;;;;;;5133388;27;20472;-64
2022/06/04 01:04:56;;;;;;;3.30;2.57;;;15.90;99.90;;;;;;5134595;27;20559;-64
2022/06/04 01:07:39;;;;;;;3.03;2.00;;;15.90;99.90;;;;;;5113768;28;20525;-64
2022/06/04 01:10:19;;;;;;;4.50;2.73;;;15.80;99.90;;;;;;5114268;27;20489;-65
2022/06/04 01:13:11;;;;;;;2.97;2.00;;;15.80;99.90;;;;;;5113932;28;20513;-66
2022/06/04 01:15:49;;;;;;;3.37;2.10;;;15.80;99.90;;;;;;5132749;27;20512;-64
2022/06/04 01:18:34;;;;;;;3.47;2.40;;;15.80;99.90;;;;;;5134509;27;20497;-64
2022/06/04 01:21:08;;;;;;;3.17;2.27;;;15.70;99.90;;;;;;5114050;28;20485;-64
2022/06/04 01:24:10;;;;;;;3.20;2.33;;;15.60;99.90;;;;;;5113964;27;20512;-68
2022/06/04 01:27:02;;;;;;;4.30;3.10;;;15.60;99.90;;;;;;5099676;27;20473;-64
2022/06/04 01:29:34;;;;;;;10.73;3.00;;;15.60;99.90;;;;;;5132988;27;21416;-65
2022/06/04 01:32:07;;;;;;;5.00;2.30;;;15.60;99.90;;;;;;5132810;27;21015;-64
2022/06/04 01:34:38;;;;;;;3.50;2.50;;;15.60;99.90;;;;;;5134018;27;20524;-64
2022/06/04 01:37:10;;;;;;;3.03;2.33;;;15.60;99.90;;;;;;5132559;27;20524;-64
2022/06/04 01:42:32;;;;;;;5.37;2.90;;;15.60;99.90;;;;;;5131047;27;20432;-69
2022/06/04 01:45:01;;;;;;;11.03;2.30;;;15.70;99.90;;;;;;5133885;27;20997;-64
2022/06/04 01:47:30;;;;;;;3.27;1.83;;;15.70;99.90;;;;;;5132159;27;20444;-64
2022/06/04 01:49:58;;;;;;;2.47;1.80;;;15.60;99.90;;;;;;5132889;27;20455;-66
2022/06/04 01:52:33;;;;;;;3.17;2.17;;;15.60;99.90;;;;;;5133444;27;20499;-63
2022/06/04 01:55:05;;;;;;;2.83;1.93;;;15.60;99.90;;;;;;5133133;27;20878;-66
2022/06/04 01:57:37;;;;;;;2.33;1.80;;;15.50;99.90;;;;;;5131807;27;20469;-64
2022/06/04 02:00:09;;;;;;;2.30;1.60;;;15.50;99.90;;;;;;5131617;27;20433;-67
2022/06/04 02:02:43;;;;;;;2.90;1.40;;;15.40;99.90;;;;;;5133905;27;20617;-64
2022/06/04 02:05:16;;;;;;;3.27;2.03;;;15.30;99.90;;;;;;5131644;28;20538;-64
2022/06/04 02:07:47;;;;;;;4.00;1.40;;;15.10;99.90;;;;;;5133129;28;20940;-64
2022/06/04 02:10:20;;;;;;;2.00;1.10;;;15.00;99.60;;;;;;5133076;28;20460;-64
2022/06/04 02:12:52;;;;;;;2.57;1.63;;;15.00;99.70;;;;;;5131565;27;20432;-64
2022/06/04 02:15:22;;;;;;;2.57;1.50;;;15.00;99.90;;;;;;5133635;28;20745;-63
2022/06/04 02:17:53;;;;;;;2.43;1.70;;;15.00;99.90;;;;;;5131754;27;20764;-64
2022/06/04 02:20:20;;;;;;;2.70;2.03;;;14.90;99.90;;;;;;5133588;27;20429;-64
2022/06/04 02:22:49;;;;;;;2.90;2.00;;;14.90;99.90;;;;;;5132531;28;20448;-65
2022/06/04 02:25:16;;;;;;;6.00;1.90;;;14.90;99.90;;;;;;5133471;27;20865;-65
2022/06/04 02:27:45;;;;;;;3.10;2.60;;;14.80;99.90;;;;;;5132627;28;20429;-64
2022/06/04 02:30:14;;;;;;;4.33;2.30;;;14.80;99.90;;;;;;5131868;27;20440;-64
2022/06/04 02:32:54;;;;;;;4.47;3.70;;;14.90;99.90;;;;;;5132787;27;20469;-66
2022/06/04 02:35:28;;;;;;;5.63;2.80;;;14.90;99.90;;;;;;5130718;27;20438;-64
2022/06/04 02:38:02;;;;;;;4.73;2.30;;;14.90;99.90;;;;;;5131831;28;20523;-63
2022/06/04 02:40:34;;;;;;;3.30;2.50;;;14.90;99.90;;;;;;5131842;28;20434;-63
2022/06/04 02:43:07;;;;;;;8.13;2.57;;;14.90;99.90;;;;;;5131783;28;20446;-63
2022/06/04 02:45:41;;;;;;;3.07;2.30;;;14.90;99.90;;;;;;5133379;27;20603;-64
2022/06/04 02:48:15;;;;;;;3.83;2.63;;;14.90;99.90;;;;;;5132365;27;20441;-63
2022/06/04 02:50:45;;;;;;;5.67;2.20;;;15.00;99.90;;;;;;5133323;28;20436;-63
2022/06/04 02:53:16;;;;;;;4.07;2.40;;;14.90;99.90;;;;;;5132446;27;20465;-66
2022/06/04 02:55:48;;;;;;;6.73;2.30;;;14.90;99.90;;;;;;5134203;27;20444;-63
2022/06/04 02:58:18;;;;;;;3.10;2.00;;;14.90;99.90;;;;;;5135868;27;20647;-63
2022/06/04 03:00:49;;;;;;;8.70;2.33;;;14.90;99.90;;;;;;5136812;27;20473;-64
2022/06/04 03:03:16;;;;;;;3.37;1.93;;;14.80;99.90;;;;;;5135669;27;20512;-64
2022/06/04 03:05:52;;;;;;;2.73;2.00;;;14.70;99.90;;;;;;5137086;27;20567;-64
2022/06/04 03:08:19;;;;;;;2.73;2.00;;;14.60;99.90;;;;;;5135739;27;20771;-64
2022/06/04 03:10:46;;;;;;;3.43;1.70;;;14.60;99.90;;;;;;5136519;27;20522;-64
2022/06/04 03:13:13;;;;;;;3.10;1.80;;;14.50;99.90;;;;;;5134796;27;20436;-63
2022/06/04 03:15:40;;;;;;;2.20;1.50;;;14.50;99.90;;;;;;5136803;27;20488;-64
2022/06/04 03:18:08;;;;;;;4.50;2.10;;;14.50;99.90;;;;;;5135490;27;20911;-63
2022/06/04 03:20:35;;;;;;;7.30;2.20;;;14.50;99.90;;;;;;5136950;27;20727;-63
2022/06/04 03:23:02;;;;;;;3.77;2.10;;;14.50;99.90;;;;;;5135463;27;20437;-63
2022/06/04 03:25:30;;;;;;;9.60;2.20;;;14.40;99.90;;;;;;5136355;27;20477;-64
2022/06/04 03:27:57;;;;;;;2.80;1.10;;;14.40;99.90;;;;;;5135651;27;20458;-63
2022/06/04 03:30:25;;;;;;;2.37;1.50;;;14.40;99.90;;;;;;5136118;27;20421;-63
2022/06/04 03:32:52;;;;;;;2.30;1.07;;;14.40;99.90;;;;;;5135173;27;20437;-64
2022/06/04 03:35:20;;;;;;;1.77;0.90;;;14.40;99.90;;;;;;5135077;27;20430;-64
2022/06/04 03:37:47;;;;;;;2.10;1.37;;;14.30;99.90;;;;;;5136175;27;20835;-64
2022/06/04 03:40:15;;;;;;;2.20;1.50;;;14.30;99.90;;;;;;5135014;27;20525;-65
2022/06/04 03:42:42;;;;;;;2.20;1.40;;;14.30;99.90;;;;;;5136324;27;20911;-64
2022/06/04 03:45:12;;;;;;;2.40;1.40;;;14.30;99.90;;;;;;5134778;27;20991;-67
2022/06/04 03:47:40;;;;;;;4.87;2.03;;;14.40;99.90;;;;;;5136345;27;20437;-63
2022/06/04 03:50:09;;;;;;;4.60;1.47;;;14.40;99.90;;;;;;5134776;27;20441;-64
2022/06/04 03:52:38;;;;;;;3.13;1.47;;;14.40;99.90;;;;;;5135952;27;20429;-63
2022/06/04 03:55:06;;;;;;;2.30;1.20;;;14.40;99.90;;;;;;5134232;27;20513;-63
2022/06/04 03:57:48;;;;;;;1.80;1.00;;;14.40;99.90;;;;;;5135998;27;20444;-63
2022/06/04 04:00:19;;;;;;;1.97;1.23;;;14.40;99.90;;;;;;5131491;27;20456;-65
2022/06/04 04:02:48;;;;;;;4.57;1.83;;;14.40;99.90;;;;;;5136063;27;20536;-64
2022/06/04 04:05:18;;;;;;;2.00;1.20;;;14.40;99.90;;;;;;5134387;27;21006;-63
2022/06/04 04:07:46;;;;;;;2.70;1.10;;;14.40;99.90;;;;;;5136154;27;20919;-64
2022/06/04 04:10:14;;;;;;;2.40;1.50;;;14.40;99.90;;;;;;5134463;27;20439;-64
2022/06/04 04:12:41;;;;;;;3.00;1.77;;;14.50;99.90;;;;;;5135950;27;20460;-64
2022/06/04 04:15:09;;;;;;;2.77;1.83;;;14.50;99.90;;;;;;5134187;27;20433;-63
2022/06/04 04:17:39;;;;;;;3.37;1.80;;;14.50;99.90;;;;;;5135786;27;20447;-63
2022/06/04 04:20:09;;;;;;;3.80;1.80;;;14.50;99.90;;;;;;5134194;27;20792;-63
2022/06/04 04:22:36;;;;;;;3.80;2.30;;;14.50;99.90;;;;;;5134479;27;20433;-64
2022/06/04 04:25:05;;;;;;;4.47;2.60;;;14.50;99.90;;;;;;5135774;27;20537;-63
2022/06/04 04:27:33;;;;;;;9.77;7.60;;;14.60;99.90;;;;;;5135095;27;21002;-64
2022/06/04 04:30:00;;;;;;;11.77;8.97;;;14.60;99.90;;;;;;5135679;27;20836;-65
2022/06/04 04:32:27;;;;;;;11.43;9.53;;;14.60;99.90;;;;;;5134508;27;20512;-64
2022/06/04 04:34:54;;;;;;;3.90;3.10;;;14.70;99.90;;;;;;5135631;27;20433;-64
2022/06/04 04:37:21;;;;;;;4.83;3.97;;;14.80;99.90;;;;;;5134045;27;20861;-63
2022/06/04 04:39:48;;;;;;;4.60;2.90;;;14.90;99.90;;;;;;5135389;27;20443;-64
2022/06/04 04:42:16;;;;;;;2.70;1.90;;;14.90;99.90;;;;;;5134320;27;20440;-65
2022/06/04 04:44:43;;;;;;;13.40;10.60;;;14.90;99.90;;;;;;5135346;27;20536;-65
2022/06/04 04:47:10;;;;;;;11.23;8.03;;;14.90;99.90;;;;;;5135251;27;20468;-67
2022/06/04 04:49:37;;;;;;;5.53;4.53;;;15.00;99.90;;;;;;5134010;27;20990;-64
2022/06/04 04:52:05;;;;;;;3.63;2.77;;;15.10;99.90;;;;;;5135120;27;20444;-63
2022/06/04 04:54:32;;;;;;;3.57;2.80;;;15.10;99.90;;;;;;5133899;27;20457;-65
2022/06/04 04:56:59;;;;;;;15.27;12.60;;;15.20;99.90;;;;;;5134134;27;20437;-64
2022/06/04 04:59:29;;;;;;;9.83;7.60;;;15.20;99.90;;;;;;5134002;27;20852;-64
2022/06/04 05:01:55;;;;;;;3.83;3.30;;;15.30;99.90;;;;;;5134983;27;20466;-64
2022/06/04 05:04:22;;;;;;;4.17;2.33;;;15.40;99.90;;;;;;5133288;27;20437;-64
2022/06/04 05:06:49;;;;;;;3.70;2.93;;;15.40;99.90;;;;;;5133692;27;20529;-64
2022/06/04 05:09:16;;;;;;;3.00;2.23;;;15.50;99.90;;;;;;5134628;27;20757;-64
2022/06/04 05:11:44;;;;;;;4.40;3.10;;;15.50;99.90;;;;;;5133787;27;20430;-68
2022/06/04 05:14:11;;;;;;;5.03;2.93;;;15.60;99.90;;;;;;5134850;27;20530;-66
2022/06/04 05:16:40;;;;;;;3.60;2.70;;;15.60;99.90;;;;;;5132415;27;20958;-65
2022/06/04 05:19:07;;;;;;;4.03;2.67;;;15.70;99.90;;;;;;5134894;27;20443;-64
2022/06/04 05:21:40;;;;;;;7.43;2.40;;;15.80;99.90;;;;;;5133351;27;20444;-64
2022/06/04 05:24:08;;;;;;;4.00;2.77;;;15.90;99.90;;;;;;5133942;27;20532;-70
2022/06/04 05:26:35;;;;;;;3.83;3.10;;;15.90;99.90;;;;;;5134525;27;20538;-63
2022/06/04 05:29:02;;;;;;;6.37;3.97;;;16.00;99.90;;;;;;5134562;27;20437;-64
2022/06/04 05:31:29;;;;;;;5.47;3.20;;;16.10;99.90;;;;;;5131954;27;20510;-64
2022/06/04 05:33:58;;;;;;;3.23;2.27;;;16.30;99.90;;;;;;5133997;27;20441;-64
2022/06/04 05:36:25;;;;;;;5.20;2.80;;;16.40;99.90;;;;;;5132842;27;20524;-64
2022/06/04 05:38:52;;;;;;;4.00;2.60;;;16.50;99.90;;;;;;5134146;27;20438;-65
2022/06/04 05:41:18;;;;;;;5.07;3.43;;;16.60;99.90;;;;;;5133400;27;20797;-64
2022/06/04 05:43:45;;;;;;;3.90;3.33;;;16.70;99.90;;;;;;5134131;27;20436;-64
2022/06/04 05:46:15;;;;;;;5.50;3.40;;;16.90;99.90;;;;;;5132717;27;20477;-64
2022/06/04 05:48:44;;;;;;;4.87;2.60;;;17.00;99.90;;;;;;5133443;27;20438;-65
2022/06/04 05:51:14;;;;;;;3.10;2.13;;;17.10;99.90;;;;;;5132091;27;20443;-65
2022/06/04 05:53:41;;;;;;;3.10;2.17;;;17.20;99.90;;;;;;5132079;27;20473;-65
2022/06/04 05:56:12;;;;;;;3.63;2.63;;;17.40;99.90;;;;;;5133996;27;20439;-64
2022/06/04 05:58:39;;;;;;;3.20;2.43;;;17.50;99.90;;;;;;5132723;27;20857;-64
2022/06/04 06:01:07;;;;;;;6.33;4.20;;;17.70;99.90;;;;;;5134089;27;20433;-64
2022/06/04 06:03:34;;;;;;;3.60;2.53;;;17.90;99.90;;;;;;5132663;27;20429;-64
2022/06/04 06:06:02;;;;;;;5.67;3.03;;;18.00;99.90;;;;;;5134054;27;20588;-64
2022/06/04 06:08:30;;;;;;;3.57;2.50;;;18.10;99.90;;;;;;5132603;27;20442;-64
2022/06/04 06:10:58;;;;;;;4.33;2.23;;;18.20;99.90;;;;;;5128355;27;20810;-65
2022/06/04 06:13:25;;;;;;;3.63;2.00;;;18.30;99.90;;;;;;5128208;27;21034;-64
2022/06/04 06:15:52;;;;;;;5.63;2.60;;;18.30;99.90;;;;;;5132056;27;20532;-66
2022/06/04 06:18:19;;;;;;;3.67;2.53;;;18.50;99.90;;;;;;5131890;27;20438;-65
2022/06/04 06:20:46;;;;;;;3.27;2.40;;;18.60;99.90;;;;;;5130760;27;20437;-65
2022/06/04 06:23:13;;;;;;;4.27;2.43;;;18.90;99.90;;;;;;5130866;28;20527;-64
2022/06/04 06:25:41;;;;;;;4.93;2.57;;;19.10;99.90;;;;;;5132458;27;20481;-64
2022/06/04 06:28:08;;;;;;;3.20;2.23;;;19.30;99.90;;;;;;5134276;27;20531;-64
2022/06/04 06:30:35;;;;;;;4.67;2.73;;;19.40;99.90;;;;;;5136072;27;20520;-64
2022/06/04 06:33:03;;;;;;;4.67;2.90;;;19.40;99.90;;;;;;5135648;27;20429;-65
2022/06/04 06:35:30;;;;;;;4.40;2.93;;;19.50;99.90;;;;;;5136035;27;21484;-64
2022/06/04 06:37:57;;;;;;;4.97;3.17;;;19.50;99.90;;;;;;5134891;27;20482;-66
2022/06/04 06:40:24;;;;;;;5.07;3.10;;;19.60;99.90;;;;;;5135540;27;20431;-66
2022/06/04 06:42:53;;;;;;;8.30;3.57;;;19.60;99.90;;;;;;5134767;27;21053;-64
2022/06/04 06:45:20;;;;;;;3.90;2.43;;;19.60;99.90;;;;;;5136161;27;20552;-65
2022/06/04 06:47:47;;;;;;;4.50;2.23;;;19.70;99.90;;;;;;5134168;27;20437;-65
2022/06/04 06:50:16;;;;;;;3.57;2.40;;;19.80;99.90;;;;;;5135754;27;20493;-64
2022/06/04 06:52:43;;;;;;;5.30;2.40;;;19.80;99.90;;;;;;5134704;27;20486;-64
2022/06/04 06:55:11;;;;;;;5.47;3.13;;;19.90;99.90;;;;;;5136241;27;20434;-65
2022/06/04 06:57:37;;;;;;;3.70;2.50;;;20.10;99.90;;;;;;5133840;27;20520;-65
2022/06/04 07:00:07;;;;;;;5.33;3.73;;;20.20;99.40;;;;;;5131868;27;20429;-64
2022/06/04 07:02:34;;;;;;;3.67;2.77;;;20.20;98.40;;;;;;5135233;27;20521;-64
2022/06/04 07:05:01;;;;;;;4.20;2.97;;;20.30;98.00;;;;;;5135491;27;20444;-64
2022/06/04 07:07:29;;;;;;;4.23;2.77;;;20.40;98.60;;;;;;5134752;27;20443;-65
2022/06/04 07:09:56;;;;;;;8.30;2.60;;;20.50;98.30;;;;;;5135614;27;20432;-65
2022/06/04 07:12:23;;;;;;;5.33;2.23;;;20.80;98.60;;;;;;5134669;27;20478;-64
2022/06/04 07:14:50;;;;;;;4.33;3.17;;;21.00;97.30;;;;;;5133188;27;20430;-66
2022/06/04 07:17:18;;;;;;;6.23;3.53;;;21.40;97.90;;;;;;5134895;27;20971;-64
2022/06/04 07:19:45;;;;;;;4.87;3.17;;;21.60;98.10;;;;;;5133238;27;20982;-65
2022/06/04 07:22:12;;;;;;;4.60;3.20;;;21.90;98.00;;;;;;5135456;27;20441;-66
2022/06/04 07:24:39;;;;;;;4.50;2.10;;;22.20;98.10;;;;;;5133989;27;20484;-67
2022/06/04 07:27:07;;;;;;;3.47;2.07;;;22.40;97.90;;;;;;5135258;27;20484;-64
2022/06/04 07:29:35;;;;;;;5.47;2.03;;;22.60;97.20;;;;;;5133836;27;20884;-65
2022/06/04 07:32:02;;;;;;;4.10;2.47;;;22.60;94.20;;;;;;5135318;27;20446;-64
2022/06/04 07:34:31;;;;;;;7.50;2.03;;;22.70;94.60;;;;;;5133789;27;21034;-65
2022/06/04 07:36:58;;;;;;;4.97;1.90;;;22.90;95.80;;;;;;5135188;27;20435;-64
2022/06/04 07:39:25;;;;;;;4.10;2.20;;;23.10;95.70;;;;;;5132987;27;20866;-64
2022/06/04 07:41:53;;;;;;;6.03;2.27;;;23.30;95.00;;;;;;5134925;27;20923;-64
2022/06/04 07:44:22;;;;;;;7.07;3.00;;;23.50;94.60;;;;;;5134053;27;20441;-68
2022/06/04 07:46:50;;;;;;;5.30;2.20;;;23.60;93.30;;;;;;5134502;27;20968;-64
2022/06/04 07:49:19;;;;;;;4.70;1.90;;;23.60;91.10;;;;;;5131047;27;20949;-65
2022/06/04 07:51:49;;;;;;;6.93;2.37;;;23.60;90.30;;;;;;5133691;27;20523;-65
2022/06/04 07:54:17;;;;;;;9.73;2.03;;;23.70;90.00;;;;;;5133942;27;20784;-64
2022/06/04 07:56:45;;;;;;;4.10;1.50;;;24.00;89.10;;;;;;5133270;27;20466;-65
2022/06/04 07:59:15;;;;;;;4.47;1.70;;;24.20;85.60;;;;;;5133733;27;20783;-66
2022/06/04 08:01:43;;;;;;;4.60;1.80;;;24.30;83.30;;;;;;5130598;27;20429;-65
2022/06/04 08:04:11;;;;;;;4.00;1.93;;;24.30;83.00;;;;;;5134165;27;20452;-64
2022/06/04 08:06:38;;;;;;;4.10;1.90;;;24.40;83.30;;;;;;5134499;27;20483;-66
2022/06/04 08:09:06;;;;;;;5.80;2.23;;;24.50;81.40;;;;;;5134311;27;20441;-65
2022/06/04 08:11:35;;;;;;;3.00;1.33;;;24.60;80.50;;;;;;5134610;27;20450;-65
2022/06/04 08:14:06;;;;;;;3.90;2.27;;;24.70;81.60;;;;;;5134644;27;20460;-65
2022/06/04 08:16:34;;;;;;;5.57;2.33;;;24.90;80.90;;;;;;5132440;27;20493;-65
2022/06/04 08:19:01;;;;;;;4.87;1.50;;;25.10;79.40;;;;;;5134473;27;20528;-65
2022/06/04 08:21:28;;;;;;;8.37;2.07;;;25.20;77.70;;;;;;5130487;27;20455;-65
2022/06/04 08:23:55;;;;;;;6.37;2.60;;;25.30;77.80;;;;;;5133425;27;20444;-64
2022/06/04 08:26:23;;;;;;;4.43;2.50;;;25.40;71.30;;;;;;5132387;27;20487;-65
2022/06/04 08:28:52;;;;;;;5.30;2.07;;;25.40;71.50;;;;;;5133839;27;20444;-66
2022/06/04 08:31:20;;;;;;;5.73;2.63;;;25.40;71.70;;;;;;5132421;27;20463;-67
2022/06/04 08:33:48;;;;;;;4.63;1.80;;;25.30;72.10;;;;;;5133379;27;20445;-66
2022/06/04 08:36:16;;;;;;;2.70;2.20;;;25.00;69.10;;;;;;5133141;27;20436;-66
2022/06/04 08:38:43;;;;;;;3.50;2.07;;;24.90;73.00;;;;;;5133355;27;20528;-64
2022/06/04 08:41:22;;;;;;;3.67;1.93;;;24.80;69.80;;;;;;5133044;27;20523;-65
2022/06/04 08:43:57;;;;;;;2.70;1.90;;;24.60;68.30;;;;;;5131923;27;20460;-65
2022/06/04 08:46:31;;;;;;;3.17;2.10;;;24.50;68.70;;;;;;5133076;27;20479;-64
2022/06/04 08:49:03;;;;;;;6.23;1.67;;;24.40;69.90;;;;;;5133116;27;20423;-65
2022/06/04 08:51:31;;;;;;;3.30;2.03;;;24.30;70.40;;;;;;5132388;27;21306;-65
2022/06/04 08:57:32;;;;;;;4.77;2.77;;;24.40;70.70;;;;;;5132073;27;20461;-65
2022/06/04 08:59:40;;;;;;;6.53;1.80;;;24.30;68.20;;;;;;5133004;27;20778;-64
2022/06/04 09:02:14;;;;;;;3.00;1.90;;;24.20;68.20;;;;;;5130664;27;20475;-64
2022/06/04 09:04:52;;;;;;;3.73;2.70;;;24.10;68.80;;;;;;5132214;27;20516;-66
2022/06/04 09:07:23;;;;;;;5.47;1.80;;;24.20;72.00;;;;;;5128548;27;20479;-65
2022/06/04 09:09:56;;;;;;;5.40;1.90;;;24.30;70.70;;;;;;5132800;27;20436;-66
2022/06/04 09:12:34;;;;;;;3.33;1.90;;;24.20;68.50;;;;;;5131897;27;20522;-66
2022/06/04 09:15:07;;;;;;;4.10;1.87;;;24.20;71.20;;;;;;5130348;27;20433;-64
2022/06/04 09:17:40;;;;;;;6.00;2.67;;;24.30;73.20;;;;;;5130875;27;20921;-65
2022/06/04 09:20:18;;;;;;;6.00;2.40;;;24.40;71.40;;;;;;5131814;27;20443;-65
2022/06/04 09:22:48;;;;;;;5.67;2.30;;;24.50;72.20;;;;;;5131449;27;20464;-65
2022/06/04 09:25:17;;;;;;;4.90;2.27;;;24.50;69.30;;;;;;5131763;27;20928;-64
2022/06/04 09:27:53;;;;;;;4.83;2.33;;;24.60;69.80;;;;;;5132497;27;20471;-64
2022/06/04 09:30:28;;;;;;;4.70;2.03;;;24.60;67.80;;;;;;5131375;27;20441;-65
2022/06/04 09:33:29;;;;;;;4.47;2.10;;;24.70;67.60;;;;;;5131794;27;20519;-65
2022/06/04 09:35:58;;;;;;;3.97;1.90;;;24.80;66.20;;;;;;5131061;27;20500;-65
2022/06/04 09:38:26;;;;;;;2.73;1.47;;;24.90;63.60;;;;;;5126831;27;20465;-65
2022/06/04 09:41:02;;;;;;;6.20;2.53;;;24.90;61.70;;;;;;5131962;27;20534;-65
2022/06/04 09:43:29;;;;;;;3.70;1.97;;;25.00;58.10;;;;;;5130468;27;20443;-65
2022/06/04 09:46:03;;;;;;;3.10;1.80;;;25.10;59.30;;;;;;5111297;27;20487;-67
2022/06/04 09:48:32;;;;;;;4.20;1.90;;;25.20;60.70;;;;;;5127865;27;20482;-66
2022/06/04 09:51:02;;;;;;;4.37;2.03;;;25.30;60.70;;;;;;5129487;27;20467;-65
2022/06/04 09:53:32;;;;;;;4.07;1.87;;;25.40;63.00;;;;;;5128038;27;21045;-65
2022/06/04 09:56:13;;;;;;;4.93;1.90;;;25.60;64.10;;;;;;5131944;27;20443;-64
2022/06/04 09:58:42;;;;;;;3.57;1.70;;;25.80;61.30;;;;;;5131208;27;20531;-66
2022/06/04 10:01:22;;;;;;;4.63;2.00;;;26.00;59.50;;;;;;5131931;27;20478;-65
2022/06/04 10:04:00;;;;;;;5.80;1.90;;;26.10;57.90;;;;;;5129864;27;20437;-66
2022/06/04 10:06:28;;;;;;;5.40;1.87;;;26.20;56.20;;;;;;5131846;27;20524;-65
2022/06/04 10:11:50;;;;;;;3.23;2.00;;;26.50;58.00;;;;;;5131702;28;20852;-64
2022/06/04 10:14:26;;;;;;;7.77;2.30;;;26.60;56.10;;;;;;5128772;28;20512;-65
2022/06/04 10:16:55;;;;;;;5.00;1.90;;;26.80;56.80;;;;;;5130594;27;20497;-66
2022/06/04 10:19:24;;;;;;;3.40;1.70;;;26.90;54.40;;;;;;5131805;27;20524;-65
2022/06/04 10:22:05;;;;;;;3.93;2.10;;;26.90;53.50;;;;;;5131488;27;20433;-65
2022/06/04 10:24:48;;;;;;;4.23;1.70;;;27.00;52.30;;;;;;5126879;28;20447;-65
2022/06/04 10:27:34;;;;;;;3.60;1.70;;;27.10;53.00;;;;;;5131409;27;20508;-67
2022/06/04 10:30:19;;;;;;;4.70;2.23;;;27.20;54.10;;;;;;5131913;27;20806;-65
2022/06/04 10:33:05;;;;;;;6.57;2.10;;;27.20;51.70;;;;;;5131603;28;20520;-65
2022/06/04 10:36:02;;;;;;;4.90;1.90;;;27.30;54.00;;;;;;5128429;27;20449;-65
2022/06/04 10:38:41;;;;;;;5.73;2.23;;;27.40;53.00;;;;;;5117367;27;20805;-65
2022/06/04 10:41:14;;;;;;;4.33;2.13;;;27.50;53.20;;;;;;5130943;27;20421;-69
2022/06/04 10:44:06;;;;;;;3.70;2.20;;;27.60;55.20;;;;;;5131382;28;20478;-65
2022/06/04 10:46:42;;;;;;;4.53;1.90;;;27.80;53.80;;;;;;5130368;27;20469;-65
2022/06/04 10:49:24;;;;;;;4.33;2.40;;;27.80;53.00;;;;;;5131129;27;20467;-65
2022/06/04 10:51:58;;;;;;;3.87;1.70;;;27.90;55.20;;;;;;5131272;27;20445;-65
2022/06/04 10:54:34;;;;;;;3.13;2.00;;;28.00;54.50;;;;;;5130733;27;20463;-66
2022/06/04 10:57:15;;;;;;;3.67;1.70;;;28.10;53.70;;;;;;5130938;27;20437;-65
2022/06/04 10:59:50;;;;;;;5.13;2.07;;;28.20;55.80;;;;;;5131065;27;20775;-65
2022/06/04 11:02:28;;;;;;;8.97;2.60;;;28.30;55.40;;;;;;5131301;27;20749;-65
2022/06/04 11:05:00;;;;;;;2.77;1.80;;;28.40;55.50;;;;;;5130651;27;20437;-65
2022/06/04 11:07:42;;;;;;;5.73;2.40;;;28.50;51.70;;;;;;5131008;27;20488;-65
2022/06/04 11:10:16;;;;;;;5.50;2.43;;;28.50;52.50;;;;;;5130902;27;20528;-65
2022/06/04 11:12:49;;;;;;;6.60;2.30;;;28.60;53.20;;;;;;5131211;27;20441;-66
2022/06/04 11:15:21;;;;;;;3.77;2.07;;;28.60;51.20;;;;;;5133526;27;20516;-66
2022/06/04 11:17:55;;;;;;;3.70;2.00;;;28.70;51.40;;;;;;5135066;27;20433;-65
2022/06/04 11:20:27;;;;;;;4.57;1.80;;;28.70;49.60;;;;;;5134470;27;21018;-66
2022/06/04 11:23:12;;;;;;;7.00;2.13;;;28.70;49.70;;;;;;5132194;27;20450;-65
2022/06/04 11:25:42;;;;;;;7.03;2.50;;;28.80;51.70;;;;;;5133316;27;20803;-66
2022/06/04 11:28:12;;;;;;;4.17;1.80;;;28.80;52.20;;;;;;5134740;27;20523;-65
2022/06/04 11:30:53;;;;;;;4.47;2.03;;;28.90;53.00;;;;;;5134429;27;20445;-65
2022/06/04 11:33:31;;;;;;;5.97;2.10;;;29.00;54.10;;;;;;5130558;27;20525;-66
2022/06/04 11:36:09;;;;;;;3.63;2.20;;;29.00;54.70;;;;;;5134242;27;20524;-65
2022/06/04 11:38:57;;;;;;;3.40;2.00;;;29.10;55.40;;;;;;5131590;27;20433;-65
2022/06/04 11:41:32;;;;;;;3.83;2.43;;;29.20;55.50;;;;;;5130052;27;20440;-65
2022/06/04 11:44:22;;;;;;;4.63;1.93;;;29.20;55.80;;;;;;5134578;27;20452;-65
2022/06/04 11:47:03;;;;;;;7.13;2.17;;;29.30;55.60;;;;;;5133421;27;20480;-66
2022/06/04 11:49:42;;;;;;;4.10;2.40;;;29.30;57.00;;;;;;5133161;27;20524;-68
2022/06/04 11:52:20;;;;;;;4.73;1.87;;;29.30;55.80;;;;;;5133019;27;20899;-65
2022/06/04 11:55:12;;;;;;;3.33;1.90;;;29.40;55.00;;;;;;5134606;27;20497;-65
2022/06/04 11:57:50;;;;;;;3.53;2.17;;;29.40;55.00;;;;;;5134550;27;20506;-65
2022/06/04 12:00:24;;;;;;;2.97;2.30;;;29.40;55.80;;;;;;5134620;27;20783;-65
2022/06/04 12:02:59;;;;;;;3.63;2.30;;;29.50;56.30;;;;;;5134248;27;20803;-65
2022/06/04 12:05:36;;;;;;;4.30;1.93;;;29.50;56.80;;;;;;5129848;27;20436;-66
2022/06/04 12:08:08;;;;;;;6.47;2.20;;;29.50;57.40;;;;;;5132573;27;20970;-65
2022/06/04 12:10:50;;;;;;;2.83;1.90;;;29.50;56.80;;;;;;5133668;27;20760;-66
2022/06/04 12:13:24;;;;;;;5.40;2.00;;;29.40;56.70;;;;;;5134695;27;20520;-65
2022/06/04 12:15:56;;;;;;;2.83;2.00;;;29.40;56.90;;;;;;5132750;27;20450;-67
2022/06/04 12:18:28;;;;;;;3.57;1.90;;;29.40;57.80;;;;;;5129896;27;20520;-65
2022/06/04 12:26:33;;;;;;;4.57;2.93;;;29.50;57.80;;;;;;5130259;27;20554;-65
2022/06/04 12:29:01;;;;;;;4.27;2.17;;;29.50;57.90;;;;;;5133743;27;20437;-65
2022/06/04 12:31:37;;;;;;;6.23;2.27;;;29.50;56.60;;;;;;5133259;27;20870;-65
2022/06/04 12:34:05;;;;;;;3.33;2.10;;;29.50;56.90;;;;;;5134332;27;20456;-65
2022/06/04 12:36:57;;;;;;;6.00;2.20;;;29.50;57.40;;;;;;5134080;27;20859;-65
2022/06/04 12:39:32;;;;;;;4.53;2.10;;;29.40;56.20;;;;;;5129045;27;20480;-65
2022/06/04 12:42:11;;;;;;;4.87;2.90;;;29.40;56.20;;;;;;5129115;27;20472;-65
2022/06/04 12:44:38;;;;;;;4.30;2.43;;;29.30;56.20;;;;;;5130506;27;20911;-66
2022/06/04 12:47:21;;;;;;;3.40;1.93;;;29.20;55.30;;;;;;5133492;27;20473;-65
2022/06/04 12:49:54;;;;;;;4.47;2.30;;;29.20;56.00;;;;;;5132340;27;20426;-66
2022/06/04 12:52:33;;;;;;;6.07;2.07;;;29.20;56.60;;;;;;5129618;27;20523;-65
2022/06/04 12:55:11;;;;;;;4.90;1.77;;;29.20;56.50;;;;;;5131238;27;20467;-66
2022/06/04 12:58:01;;;;;;;3.73;2.00;;;29.20;56.60;;;;;;5133166;27;20458;-65
2022/06/04 13:00:36;;;;;;;4.33;2.07;;;29.20;55.90;;;;;;5129545;27;20498;-65
2022/06/04 13:03:39;;;;;;;6.27;2.77;;;29.10;54.70;;;;;;5131700;27;20447;-65
2022/06/04 13:06:32;;;;;;;5.20;2.50;;;29.10;54.90;;;;;;5129240;27;20951;-66
2022/06/04 13:09:14;;;;;;;3.93;2.20;;;29.10;55.50;;;;;;5132561;27;20433;-66
2022/06/04 13:12:04;;;;;;;3.70;1.90;;;29.00;57.10;;;;;;5132107;27;20440;-68
2022/06/04 13:14:43;;;;;;;4.13;2.27;;;29.00;55.70;;;;;;5131468;27;20428;-70
2022/06/04 13:17:30;;;;;;;4.20;2.70;;;29.00;56.10;;;;;;5132427;27;20980;-65
2022/06/04 13:20:32;;;;;;;4.30;1.90;;;29.00;54.40;;;;;;5132540;27;20490;-65
2022/06/04 13:23:04;;;;;;;4.10;2.40;;;28.90;54.60;;;;;;5132773;27;20445;-65
2022/06/04 13:25:38;;;;;;;7.97;2.73;;;28.90;53.80;;;;;;5132079;27;20441;-65
2022/06/04 13:28:23;;;;;;;4.10;2.20;;;28.80;54.50;;;;;;5127963;27;20512;-66
2022/06/04 13:30:52;;;;;;;4.53;2.13;;;28.80;54.20;;;;;;5132457;27;20836;-67